• Join FlightAware (Why Join?)
  • Login
  • US Flag 
08:13AM EST


 

Airport Tracker/Info


-or-


 

Live Flight TrackerFlight Track Log ✈ EMD21 ✈ 11-Jun-2013 ✈ KDUA - KPWA

Flight Track Log - Related Links

Times and Time Zones

All times are in EDT time to prevent confusion due to time zone crossing. See the EMD21 flight status page for this flight to view local times or setup timezone preferences in your user account.

Time Position Orientation Groundspeed Altitude Reporting Facility
EDT Latitude Longitude Course Direction KTS MPH feet Rate Location/Type
11:18AM 34.0092 -96.4889 325° Northwest 130 150 5,100  Level Fort Worth Center
11:19AM 34.0492 -96.5186 328° Northwest 146 168 6,400 1,260 Climbing Fort Worth Center
11:20AM 34.0953 -96.5533 328° Northwest 168 193 7,700 780 Climbing Fort Worth Center
11:21AM 34.1308 -96.5781 330° Northwest 180 207 8,000 120 Climbing Fort Worth Center
11:22AM 34.1958 -96.6250 329° Northwest 194 223 8,000  Level Fort Worth Center
11:23AM 34.1734 -96.5500 325° Northwest  Level FlightAware Approximate
11:23AM 34.2525 -96.6672 328° Northwest 221 254 8,000  Level Fort Worth Center
11:24AM 34.2190 -96.5880 325° Northwest  Level FlightAware Approximate
11:24AM 34.3069 -96.7094 327° Northwest 233 268 8,000  Level Fort Worth Center
11:25AM 34.3636 -96.7519 328° Northwest 233 268 8,000  Level Fort Worth Center
11:26AM 34.4222 -96.7917 331° Northwest 233 268 8,000  Level Fort Worth Center
11:27AM 34.4767 -96.8342 327° Northwest 233 268 8,000  Level Fort Worth Center
11:28AM 34.5289 -96.8817 323° Northwest 233 268 8,000  Level Fort Worth Center
11:29AM 34.5875 -96.9217 331° Northwest 238 274 8,000  Level Fort Worth Center
11:30AM 34.6461 -96.9642 329° Northwest 233 268 8,000  Level Fort Worth Center
11:31AM 34.7006 -97.0094 326° Northwest 233 268 8,000  Level Fort Worth Center
11:32AM 34.7592 -97.0494 331° Northwest 238 274 8,000  Level Fort Worth Center
11:33AM 34.7842 -97.0697 326° Northwest 238 274 8,000  Level Fort Worth Center
11:33AM 34.8114 -97.0897 329° Northwest 233 268 8,000  Level Fort Worth Center
11:34AM 34.8428 -97.1175 324° Northwest 238 274 8,000  Level Fort Worth Center
11:34AM 34.8678 -97.1353 330° Northwest 233 268 8,000 -300 Level Fort Worth Center
11:35AM 34.9094 -97.1653 329° Northwest 243 280 7,700 -300 Descending Fort Worth Center
11:35AM 34.9264 -97.1756 334° Northwest 238 274 7,700 -420 Level Fort Worth Center
11:36AM 34.9575 -97.2033 324° Northwest 245 282 7,400 -600 Descending Fort Worth Center
11:36AM 34.9828 -97.2208 330° Northwest 238 274 7,100 -600 Descending Fort Worth Center
11:37AM 35.0139 -97.2514 321° Northwest 246 283 6,800 -420 Descending Fort Worth Center
11:37AM 35.0411 -97.2664 336° Northwest 238 274 6,700 -540 Descending Fort Worth Center
11:38AM 35.0786 -97.2969 326° Northwest 251 289 6,200 -600 Descending Fort Worth Center
11:38AM 35.1017 -97.3119 332° Northwest 243 280 6,100 -120 Descending Fort Worth Center
11:39AM 35.1414 -97.3475 324° Northwest 249 287 6,100  Level Fort Worth Center
11:39AM 35.1581 -97.3578 333° Northwest 243 280 6,100  Level Fort Worth Center
11:40AM 35.1978 -97.3933 324° Northwest 238 274 6,100  Level Fort Worth Center
11:40AM 35.2144 -97.4008 340° North 243 280 6,100  Level Fort Worth Center
11:41AM 35.2561 -97.4339 327° Northwest 239 275 6,100 -240 Level Fort Worth Center
11:41AM 35.2728 -97.4442 333° Northwest 243 280 5,900 -900 Descending Fort Worth Center
11:42AM 35.3103 -97.4797 322° Northwest 251 289 5,200 -840 Descending Fort Worth Center
11:42AM 35.3250 -97.4872 337° Northwest 243 280 5,100 -720 Descending Fort Worth Center
11:43AM 35.3708 -97.5181 331° Northwest 245 282 4,500 -720 Descending Fort Worth Center
11:43AM 35.3833 -97.5256 334° Northwest 243 280 4,400 -720 Descending Fort Worth Center
11:44AM 35.4333 -97.5536 335° Northwest 232 267 3,800 -720 Descending Fort Worth Center
11:44AM 35.4436 -97.5614 328° Northwest 243 280 3,700 -780 Descending Fort Worth Center
11:45AM 35.5042 -97.5997 333° Northwest 224 258 2,900 -660 Descending Fort Worth Center
11:46AM 35.5519 -97.6153 345° North 171 197 2,500 -600 Descending Fort Worth Center
11:47AM 35.5583 -97.6508 282° West 111 128 1,700 -840 Descending Fort Worth Center
11:49AM 35.5333 -97.6333 141° Southeast  Level FlightAware Approximate
11:56AM 35.5342 -97.6471 141° Southeast  Level Estimated